Flight Track Log - Related Links

Times and Time Zones

All times are in EDT time to prevent confusion due to time zone crossing. See the N77VZ flight status page for this flight to view local times or setup timezone preferences in your user account.

Time Position Orientation Groundspeed Altitude Reporting Facility
EDT Latitude Longitude Course Direction KTS MPH feet Rate Location/Type
Sun 03:57:48 PM 35.7664 -81.0136 194° South 365 420 2,500  Level Atlanta Center
Sun 03:58:48 PM 35.7686 -81.1031 272° West 317 365 5,400 2,650 Climbing Atlanta Center
Sun 03:59:48 PM 35.7747 -81.1847 275° West 262 302 7,800 2,150 Climbing Atlanta Center
Sun 04:00:48 PM 35.7789 -81.2717 273° West 252 290 9,700 1,900 Climbing Atlanta Center
Sun 04:01:00 PM 35.3429 -80.9938 194° South  Level Estimated
Sun 04:01:48 PM 35.7642 -81.3567 258° West 252 290 11,600  Level Atlanta Center
Sun 04:02:48 PM 35.6936 -81.3844 198° South 227 261 13,300 1,800 Climbing Atlanta Center
Sun 04:03:48 PM 35.6147 -81.3947 186° South 273 314 15,200 1,700 Climbing Atlanta Center
Sun 04:04:48 PM 35.5336 -81.4075 187° South 286 329 16,700 1,300 Climbing Atlanta Center
Sun 04:05:48 PM 35.4483 -81.4231 188° South 300 345 17,800 1,150 Climbing Atlanta Center
Sun 04:06:48 PM 35.3631 -81.4358 187° South 312 359 19,000 1,150 Climbing Atlanta Center
Sun 04:07:48 PM 35.2758 -81.4489 187° South 317 365 20,100 1,050 Climbing Atlanta Center
Sun 04:08:48 PM 35.1886 -81.4669 190° South 317 365 21,100 1,000 Climbing Atlanta Center
Sun 04:09:48 PM 35.0989 -81.4772 185° South 323 372 22,100 1,000 Climbing Atlanta Center
Sun 04:10:48 PM 35.0097 -81.4928 188° South 323 372 23,100 1,000 Climbing Atlanta Center
Sun 04:11:48 PM 34.9222 -81.5056 187° South 323 372 24,100 1,000 Climbing Atlanta Center
Sun 04:12:48 PM 34.8394 -81.5358 197° South 323 372 25,100 1,000 Climbing Atlanta Center
Sun 04:13:48 PM 34.7564 -81.5611 194° South 313 360 26,100 900 Climbing Atlanta Center
Sun 04:14:48 PM 34.6839 -81.5861 196° South 313 360 26,900 900 Climbing Atlanta Center
Sun 04:15:48 PM 34.6031 -81.6111 194° South 308 354 27,900 1,000 Climbing Atlanta Center
Sun 04:16:48 PM 34.5242 -81.6336 193° South 303 349 28,900 1,000 Climbing Atlanta Center
Sun 04:17:48 PM 34.4433 -81.6636 197° South 303 349 29,900 950 Climbing Atlanta Center
Sun 04:18:48 PM 34.3625 -81.6883 194° South 298 343 30,800 950 Climbing Atlanta Center
Sun 04:19:48 PM 34.2856 -81.7133 195° South 298 343 31,800 1,000 Climbing Atlanta Center
Sun 04:20:48 PM 34.2089 -81.7353 193° South 298 343 32,800 1,000 Climbing Atlanta Center
Sun 04:21:48 PM 34.1342 -81.7625 197° South 293 337 33,800 950 Climbing Atlanta Center
Sun 04:22:48 PM 34.0594 -81.7847 194° South 287 330 34,700 950 Climbing Atlanta Center
Sun 04:23:48 PM 33.9828 -81.8067 193° South 282 325 35,700 1,000 Climbing Atlanta Center
Sun 04:24:48 PM 33.9100 -81.8311 196° South 276 318 36,700 1,000 Climbing Atlanta Center
Sun 04:25:48 PM 33.8417 -81.8653 203° Southwest 276 318 37,700 1,000 Climbing Atlanta Center
Sun 04:26:48 PM 33.7758 -81.9069 208° Southwest 276 318 38,700 950 Climbing Atlanta Center
Sun 04:27:48 PM 33.7117 -81.9511 210° Southwest 271 312 39,600 650 Climbing Atlanta Center
Sun 04:28:48 PM 33.6456 -81.9903 206° Southwest 271 312 40,000 200 Climbing Atlanta Center
Sun 04:29:48 PM 33.5753 -82.0342 207° Southwest 276 318 40,000 50 Level Atlanta Center
Sun 04:30:48 PM 33.4969 -82.0808 206° Southwest 293 337 40,100  Climbing Atlanta Center
Sun 04:31:48 PM 33.4183 -82.1300 208° Southwest 308 354 40,000 -50 Descending Atlanta Center
Sun 04:32:48 PM 33.3397 -82.1789 207° Southwest 321 369 40,000  Level Atlanta Center
Sun 04:33:48 PM 33.2569 -82.2278 206° Southwest 321 369 40,000  Level Atlanta Center
Sun 04:34:48 PM 33.1742 -82.2767 206° Southwest 321 369 40,000  Level Atlanta Center
Sun 04:35:48 PM 33.0956 -82.3256 208° Southwest 321 369 40,000  Level Atlanta Center
Sun 04:36:48 PM 33.0147 -82.3742 207° Southwest 321 369 40,000  Level Atlanta Center
Sun 04:37:48 PM 32.9319 -82.4278 209° Southwest 321 369 40,000  Level Atlanta Center
Sun 04:38:48 PM 32.8492 -82.4736 205° Southwest 326 375 40,000  Level Atlanta Center
Sun 04:39:48 PM 32.7642 -82.5222 206° Southwest 331 381 40,000  Level Atlanta Center
Sun 04:40:48 PM 32.6833 -82.5728 208° Southwest 331 381 40,000  Level Atlanta Center
Sun 04:41:48 PM 32.6006 -82.6211 206° Southwest 336 387 40,000  Level Atlanta Center
Sun 04:42:48 PM 32.5175 -82.6742 208° Southwest 336 387 40,000  Level Atlanta Center
Sun 04:45:06 PM 32.3211 -82.7992 208° Southwest 334 384 40,000  Level Jacksonville Center
Sun 04:46:06 PM 32.2417 -82.8533 210° Southwest 334 384 40,000  Level Jacksonville Center
Sun 04:47:06 PM 32.1581 -82.9072 209° Southwest 334 384 40,000  Level Jacksonville Center
Sun 04:48:06 PM 32.0789 -82.9589 209° Southwest 334 384 40,000  Level Jacksonville Center
Sun 04:49:06 PM 31.9953 -83.0150 210° Southwest 334 384 40,000  Level Jacksonville Center
Sun 04:50:06 PM 31.9139 -83.0689 209° Southwest 334 384 40,000  Level Jacksonville Center
Sun 04:51:06 PM 31.8322 -83.1250 210° Southwest 334 384 40,000  Level Jacksonville Center
Sun 04:52:06 PM 31.7508 -83.1783 209° Southwest 334 384 40,000  Level Jacksonville Center
Sun 04:53:06 PM 31.6858 -83.2222 210° Southwest 334 384 40,000  Level Jacksonville Center
Sun 04:54:06 PM 31.5958 -83.2828 210° Southwest 339 390 40,000 100 Level Jacksonville Center
Sun 04:55:06 PM 31.5144 -83.3386 210° Southwest 339 390 40,200 350 Climbing Jacksonville Center
Sun 04:56:06 PM 31.4306 -83.3917 208° Southwest 339 390 40,700 400 Climbing Jacksonville Center
Sun 04:57:06 PM 31.3511 -83.4497 212° Southwest 339 390 41,000 150 Climbing Jacksonville Center
Sun 04:58:06 PM 31.2672 -83.5050 209° Southwest 344 396 41,000  Level Jacksonville Center
Sun 04:59:06 PM 31.1833 -83.5628 211° Southwest 349 402 41,000  Level Jacksonville Center
Sun 05:00:06 PM 31.0975 -83.6206 210° Southwest 349 402 41,000  Level Jacksonville Center
Sun 05:01:06 PM 31.0117 -83.6781 210° Southwest 355 409 41,000  Level Jacksonville Center
Sun 05:02:06 PM 30.9278 -83.7331 209° Southwest 355 409 41,000  Level Jacksonville Center
Sun 05:03:06 PM 30.8314 -83.7586 193° South 340 391 41,000  Level Jacksonville Center
Sun 05:04:06 PM 30.7314 -83.7336 168° South 340 391 41,000  Level Jacksonville Center
Sun 05:05:06 PM 30.6314 -83.7133 170° South 358 412 41,000  Level Jacksonville Center
Sun 05:06:06 PM 30.5356 -83.6908 169° South 363 418 41,000  Level Jacksonville Center
Sun 05:07:06 PM 30.4375 -83.6683 169° South 363 418 41,000  Level Jacksonville Center
Sun 05:08:06 PM 30.3375 -83.6458 169° South 363 418 41,000  Level Jacksonville Center
Sun 05:09:06 PM 30.2372 -83.6236 169° South 369 425 41,000  Level Jacksonville Center
Sun 05:10:06 PM 30.1350 -83.6011 169° South 369 425 41,000  Level Jacksonville Center
Sun 05:11:06 PM 30.0225 -83.5764 169° South 374 430 41,000  Level Jacksonville Center
Sun 05:12:06 PM 29.9225 -83.5542 169° South 369 425 41,000  Level Jacksonville Center
Sun 05:13:06 PM 29.8222 -83.5342 170° South 369 425 41,000  Level Jacksonville Center
Sun 05:14:06 PM 29.7181 -83.5094 168° South 369 425 41,000  Level Jacksonville Center
Sun 05:15:06 PM 29.6158 -83.4897 170° South 369 425 41,000  Level Jacksonville Center
Sun 05:16:06 PM 29.5136 -83.4653 168° South 369 425 41,000  Level Jacksonville Center
Sun 05:17:06 PM 29.4094 -83.4433 170° South 374 430 41,000  Level Jacksonville Center
Sun 05:18:06 PM 29.3092 -83.4164 167° South 374 430 41,000  Level Jacksonville Center
Sun 05:19:06 PM 29.2069 -83.3944 169° South 374 430 41,000  Level Jacksonville Center
Sun 05:20:06 PM 29.1028 -83.3725 170° South 374 430 41,000  Level Jacksonville Center
Sun 05:21:06 PM 29.0006 -83.3483 168° South 374 430 41,000 -450 Level Jacksonville Center
Sun 05:22:06 PM 28.8983 -83.3383 175° South 374 430 40,100 -1,150 Descending Jacksonville Center
Sun 05:23:06 PM 28.7939 -83.3450 183° South 374 430 38,700 -1,387 Descending Jacksonville Center
Sun 05:25:12 PM 28.5917 -83.3517 182° South 385 443 35,800 -1,419 Descending Miami Center
Sun 05:26:12 PM 28.4831 -83.3525 180° South 385 443 34,300 -1,400 Descending Miami Center
Sun 05:27:12 PM 28.3783 -83.3628 185° South 385 443 33,000 -650 Descending Miami Center
Sun 05:28:12 PM 28.2761 -83.3639 181° South 385 443 33,000  Level Miami Center
Sun 05:29:12 PM 28.1781 -83.3700 183° South 373 429 33,000  Level Miami Center
Sun 05:30:12 PM 28.0844 -83.3647 177° South 357 411 33,000  Level Miami Center
Sun 05:31:12 PM 27.9914 -83.3428 168° South 343 395 33,000 -200 Level Miami Center
Sun 05:32:12 PM 27.8986 -83.3236 170° South 343 395 32,600 -455 Descending Miami Center
Sun 05:33:24 PM 27.8058 -83.2994 167° South 343 395 32,000 -636 Descending Miami Center
Sun 05:34:24 PM 27.6900 -83.2742 169° South 350 403 31,200 -700 Descending Miami Center
Sun 05:35:24 PM 27.5972 -83.2503 167° South 350 403 30,600 -650 Descending Miami Center
Sun 05:36:24 PM 27.5067 -83.2242 166° South 350 403 29,900 -700 Descending Miami Center
Sun 05:37:24 PM 27.4214 -83.1703 151° Southeast 345 397 29,200 -950 Descending Miami Center
Sun 05:38:24 PM 27.3342 -83.1164 151° Southeast 351 404 28,000 -1,250 Descending Miami Center
Sun 05:39:24 PM 27.2672 -83.0708 149° Southeast 356 410 26,700 -1,550 Descending Miami Center
Sun 05:40:24 PM 27.1594 -83.0044 151° Southeast 362 417 24,900 -1,600 Descending Miami Center
Sun 05:41:24 PM 27.0781 -82.9581 153° Southeast 347 399 23,500 -1,400 Descending Miami Center
Sun 05:42:24 PM 26.9986 -82.9072 150° Southeast 336 387 22,100 -1,350 Descending Miami Center
Sun 05:43:24 PM 26.9214 -82.8614 152° Southeast 330 380 20,800 -1,300 Descending Miami Center
Sun 05:44:24 PM 26.8442 -82.8133 151° Southeast 318 366 19,500 -1,350 Descending Miami Center
Sun 05:45:24 PM 26.7667 -82.7675 152° Southeast 318 366 18,100 -1,300 Descending Miami Center
Sun 05:46:24 PM 26.6914 -82.7219 152° Southeast 317 365 16,900 -1,150 Descending Miami Center
Sun 05:47:24 PM 26.6281 -82.6817 150° Southeast 292 336 15,800 -1,000 Descending Miami Center
Sun 05:48:24 PM 26.5708 -82.6508 154° Southeast 256 295 14,900 -850 Descending Miami Center
Sun 05:49:24 PM 26.5200 -82.6183 150° Southeast 230 265 14,100 -900 Descending Miami Center
Sun 05:50:24 PM 26.4672 -82.5856 151° Southeast 213 245 13,100 -1,050 Descending Miami Center
Sun 05:51:24 PM 26.4081 -82.5503 152° Southeast 227 261 12,000 -1,100 Descending Miami Center
Sun 05:52:24 PM 26.3389 -82.5028 148° Southeast 252 290 10,900 -1,100 Descending Miami Center
Sun 05:53:24 PM 26.2775 -82.4675 153° Southeast 260 299 9,800 -1,050 Descending Miami Center
Sun 05:54:24 PM 26.2164 -82.4300 151° Southeast 260 299 8,800 -1,000 Descending Miami Center
Sun 05:55:24 PM 26.1614 -82.3972 152° Southeast 249 287 7,800 -1,000 Descending Miami Center
Sun 05:56:24 PM 26.1067 -82.3508 143° Southeast 249 287 6,800 -1,000 Descending Miami Center
Sun 05:57:24 PM 26.0861 -82.2897 111° Southeast 221 254 5,800 -1,000 Descending Miami Center
Sun 05:59:00 PM 26.1167 -82.1311 90° East  Level FlightAware Approximate
Sun 06:06:00 PM 26.1524 -81.7756 79° East  Level Estimated
Sun 06:07:00 PM 26.1524 -81.7756 79° East  Level Estimated
Sun 06:08:00 PM 26.1524 -81.7756 79° East  Level Estimated
Sun 06:09:00 PM 26.1524 -81.7756 79° East  Level Estimated
Sun 06:10:00 PM 26.1524 -81.7756 79° East  Level Estimated
Sun 06:11:00 PM 26.1524 -81.7756 79° East  Level Estimated
Sun 06:12:00 PM 26.1524 -81.7756 79° East  Level Estimated
Sun 06:13:00 PM 26.1524 -81.7756 79° East  Level Estimated
Sun 06:14:00 PM 26.1524 -81.7756 79° East  Level Estimated
Sun 06:15:00 PM 26.1524 -81.7756 79° East  Level Estimated
Sun 06:16:00 PM 26.1524 -81.7756 79° East  Level Estimated
Sun 06:17:00 PM 26.1524 -81.7756 79° East  Level Estimated

Login

Don't have an account? Register now (free) for customized features, flight alerts, and more!